Time;durP1;ratioP1;P1;durP2;ratioP2;P2;SDS_P1;SDS_P2;PMS_P1;PMS_P2;Temp;Humidity;BMP_temperature;BMP_pressure;BME280_temperature;BME280_humidity;BME280_pressure;Samples;Min_cycle;Max_cycle;Signal;HPM_P1;HPM_P2
2022/08/30 00:03:15;;;;;;;3.13;1.80;;;20.50;99.90;;;;;;5060473;28;20208;-94
2022/08/30 00:05:47;;;;;;;3.85;1.90;;;20.70;99.90;;;;;;5047409;28;20282;-95
2022/08/30 00:08:19;;;;;;;4.25;1.88;;;20.80;99.90;;;;;;5054035;28;20210;-92
2022/08/30 00:10:50;;;;;;;2.03;1.70;;;21.00;99.90;;;;;;5052291;28;20224;-92
2022/08/30 00:13:25;;;;;;;3.25;1.67;;;21.10;99.90;;;;;;5042336;28;20615;-93
2022/08/30 00:15:58;;;;;;;5.82;1.70;;;21.40;99.90;;;;;;5027945;28;20228;-90
2022/08/30 00:18:30;;;;;;;3.10;1.77;;;21.50;99.90;;;;;;5054192;28;20552;-92
2022/08/30 00:21:03;;;;;;;4.00;1.90;;;21.60;99.90;;;;;;5056145;28;20197;-91
2022/08/30 00:23:34;;;;;;;2.20;1.40;;;21.80;99.90;;;;;;5055254;28;20220;-89
2022/08/30 00:26:04;;;;;;;3.85;1.90;;;21.80;99.90;;;;;;5047033;28;20280;-91
2022/08/30 00:28:40;;;;;;;3.03;1.60;;;21.80;99.90;;;;;;5044671;28;20207;-93
2022/08/30 00:31:11;;;;;;;2.08;1.80;;;21.90;99.90;;;;;;5045631;28;20567;-92
2022/08/30 00:33:46;;;;;;;3.17;1.75;;;21.90;99.90;;;;;;5036896;28;20193;-91
2022/08/30 00:36:25;;;;;;;2.97;2.20;;;22.00;99.90;;;;;;5060047;28;20266;-95
2022/08/30 00:39:02;;;;;;;3.10;1.80;;;22.10;99.90;;;;;;5064025;28;20204;-94
2022/08/30 00:41:33;;;;;;;4.93;2.10;;;22.20;99.90;;;;;;5052467;28;20196;-91
2022/08/30 00:44:07;;;;;;;4.10;2.08;;;22.30;99.90;;;;;;5044129;28;20190;-89
2022/08/30 00:46:39;;;;;;;3.35;1.90;;;22.30;99.90;;;;;;5048169;28;20286;-92
2022/08/30 00:49:17;;;;;;;3.85;1.90;;;22.40;99.90;;;;;;5055724;28;20216;-93
2022/08/30 00:51:50;;;;;;;3.17;1.88;;;22.50;99.90;;;;;;5054870;28;20228;-91
2022/08/30 00:54:22;;;;;;;3.53;2.03;;;22.50;99.90;;;;;;5037445;28;20203;-88
2022/08/30 00:56:54;;;;;;;3.63;1.90;;;22.50;99.90;;;;;;5079420;28;20228;-89
2022/08/30 00:59:29;;;;;;;3.38;1.95;;;22.60;99.90;;;;;;5062488;28;20183;-88
2022/08/30 01:02:00;;;;;;;4.38;2.15;;;22.70;99.90;;;;;;5070277;28;20232;-87
2022/08/30 01:04:34;;;;;;;3.03;1.77;;;22.70;99.90;;;;;;5072251;28;20232;-91
2022/08/30 01:07:05;;;;;;;6.22;2.03;;;22.80;99.90;;;;;;5066269;28;20291;-88
2022/08/30 01:09:38;;;;;;;3.20;2.00;;;22.90;99.90;;;;;;5053566;28;20375;-88
2022/08/30 01:12:10;;;;;;;2.97;2.00;;;23.00;99.90;;;;;;5051493;28;20197;-92
2022/08/30 01:14:43;;;;;;;3.00;1.90;;;23.00;99.90;;;;;;5039946;28;20765;-90
2022/08/30 01:17:16;;;;;;;3.60;2.22;;;23.10;99.90;;;;;;5055486;28;20224;-90
2022/08/30 01:19:49;;;;;;;4.30;1.88;;;23.20;99.90;;;;;;5064536;28;20292;-91
2022/08/30 01:22:26;;;;;;;2.78;1.98;;;23.20;99.90;;;;;;5040513;28;20719;-92
2022/08/30 01:25:03;;;;;;;5.72;1.90;;;23.30;99.90;;;;;;5043225;28;20204;-92
2022/08/30 01:27:36;;;;;;;2.88;2.10;;;23.40;99.90;;;;;;5052249;28;20192;-91
2022/08/30 01:30:08;;;;;;;3.53;1.70;;;23.40;99.90;;;;;;5053297;28;20200;-94
2022/08/30 01:32:43;;;;;;;2.50;1.70;;;23.50;99.90;;;;;;5038155;28;20196;-91
2022/08/30 01:35:16;;;;;;;4.50;2.20;;;23.50;99.90;;;;;;5053444;28;20714;-92
2022/08/30 01:37:48;;;;;;;4.10;1.70;;;23.50;99.90;;;;;;5048254;28;20227;-90
2022/08/30 01:40:22;;;;;;;3.45;1.77;;;23.50;99.90;;;;;;5051378;28;20673;-89
2022/08/30 01:42:54;;;;;;;3.65;2.00;;;23.50;99.90;;;;;;5041413;28;20207;-90
2022/08/30 01:45:25;;;;;;;3.08;1.80;;;23.50;99.90;;;;;;5034541;28;20197;-90
2022/08/30 01:47:55;;;;;;;2.25;1.80;;;23.60;99.90;;;;;;5055308;28;20204;-90
2022/08/30 01:50:26;;;;;;;5.32;2.13;;;23.70;99.90;;;;;;5052361;28;20722;-88
2022/08/30 01:52:59;;;;;;;2.50;1.85;;;23.70;99.90;;;;;;5053546;28;20215;-91
2022/08/30 01:55:33;;;;;;;2.97;1.75;;;23.90;99.90;;;;;;5051750;28;20576;-90
2022/08/30 01:58:11;;;;;;;3.08;1.98;;;23.90;99.90;;;;;;5056154;28;20225;-90
2022/08/30 02:00:43;;;;;;;3.13;1.80;;;23.90;99.90;;;;;;5058885;28;20227;-93
2022/08/30 02:03:15;;;;;;;3.55;2.08;;;23.90;99.90;;;;;;5053588;28;20281;-95
2022/08/30 02:05:47;;;;;;;3.25;2.10;;;24.00;99.90;;;;;;5052179;28;20280;-91
2022/08/30 02:08:19;;;;;;;3.80;1.83;;;24.00;99.90;;;;;;5054438;28;20205;-93
2022/08/30 02:10:53;;;;;;;2.95;2.00;;;24.00;99.90;;;;;;5058725;28;20264;-95
2022/08/30 02:13:29;;;;;;;3.83;1.90;;;24.00;99.90;;;;;;5056771;28;20203;-91
2022/08/30 02:16:01;;;;;;;5.65;2.10;;;24.00;99.90;;;;;;5048934;28;20242;-92
2022/08/30 02:18:34;;;;;;;2.50;2.00;;;24.00;99.90;;;;;;5043777;28;20578;-94
2022/08/30 02:21:08;;;;;;;4.47;2.28;;;24.00;99.90;;;;;;5055761;28;20223;-95
2022/08/30 02:23:41;;;;;;;3.65;1.95;;;24.00;99.90;;;;;;5043875;28;20192;-95
2022/08/30 02:26:16;;;;;;;5.28;2.20;;;24.00;99.90;;;;;;5054695;28;20200;-93
2022/08/30 02:28:48;;;;;;;3.17;1.90;;;23.90;99.90;;;;;;5055640;28;20200;-94
2022/08/30 02:31:21;;;;;;;3.67;1.70;;;24.10;99.90;;;;;;5055492;28;20315;-92
2022/08/30 02:33:54;;;;;;;3.42;1.60;;;24.10;99.90;;;;;;5060190;28;20276;-93
2022/08/30 02:36:29;;;;;;;3.08;2.00;;;24.20;99.90;;;;;;5062578;28;20230;-94
2022/08/30 02:39:09;;;;;;;3.35;1.80;;;24.30;99.90;;;;;;5051631;28;20211;-94
2022/08/30 02:41:45;;;;;;;4.38;2.08;;;24.30;99.90;;;;;;5061511;28;20295;-92
2022/08/30 02:44:17;;;;;;;2.58;1.95;;;24.50;99.90;;;;;;5058925;28;20210;-93
2022/08/30 02:46:48;;;;;;;5.30;1.98;;;24.60;99.90;;;;;;5055375;28;20188;-90
2022/08/30 02:49:21;;;;;;;5.10;2.00;;;24.60;99.90;;;;;;5063007;28;20246;-93
2022/08/30 02:51:53;;;;;;;3.03;2.00;;;24.60;99.90;;;;;;5072177;28;20205;-92
2022/08/30 02:54:28;;;;;;;3.20;1.67;;;24.60;99.90;;;;;;5071348;28;20211;-92
2022/08/30 02:57:05;;;;;;;3.55;1.80;;;24.70;99.90;;;;;;5064429;28;20215;-91
2022/08/30 02:59:40;;;;;;;2.10;1.80;;;24.70;99.90;;;;;;5057670;28;20636;-89
2022/08/30 03:02:11;;;;;;;3.28;1.75;;;24.70;99.90;;;;;;5051079;28;20227;-88
2022/08/30 03:04:43;;;;;;;4.38;2.00;;;24.70;99.90;;;;;;5055424;28;20247;-90
2022/08/30 03:07:20;;;;;;;4.18;2.00;;;24.80;99.90;;;;;;5054575;28;20193;-89
2022/08/30 03:09:54;;;;;;;4.22;1.95;;;24.90;99.90;;;;;;5038298;28;20200;-89
2022/08/30 03:12:31;;;;;;;4.80;1.75;;;24.90;99.90;;;;;;5056447;28;20207;-89
2022/08/30 03:15:02;;;;;;;2.80;1.70;;;24.90;99.90;;;;;;5055445;28;20224;-87
2022/08/30 03:17:33;;;;;;;2.30;1.77;;;24.80;99.90;;;;;;5055968;28;20314;-85
2022/08/30 03:20:04;;;;;;;2.22;1.73;;;24.80;99.90;;;;;;5054123;28;20212;-88
2022/08/30 03:22:38;;;;;;;2.95;1.70;;;24.90;99.90;;;;;;5038853;28;20203;-89
2022/08/30 03:25:11;;;;;;;2.70;1.75;;;24.90;99.90;;;;;;5054537;28;20215;-91
2022/08/30 03:27:53;;;;;;;4.13;1.65;;;24.80;99.90;;;;;;5055103;28;20220;-88
2022/08/30 03:30:24;;;;;;;2.28;1.52;;;24.90;99.90;;;;;;5045412;28;20208;-88
2022/08/30 03:32:55;;;;;;;2.03;1.58;;;24.90;99.90;;;;;;5047917;28;20201;-86
2022/08/30 03:35:27;;;;;;;2.42;1.55;;;24.90;99.90;;;;;;5052777;28;20668;-86
2022/08/30 03:37:58;;;;;;;2.83;1.58;;;24.90;99.90;;;;;;5048417;28;20619;-88
2022/08/30 03:40:30;;;;;;;3.22;1.58;;;24.90;99.90;;;;;;5054333;28;20193;-88
2022/08/30 03:43:04;;;;;;;4.20;1.40;;;24.90;99.90;;;;;;5066181;28;20196;-91
2022/08/30 03:45:36;;;;;;;2.75;1.48;;;24.90;99.90;;;;;;5071887;28;20200;-88
2022/08/30 03:48:08;;;;;;;2.08;1.30;;;24.90;99.90;;;;;;5051913;28;20280;-91
2022/08/30 03:50:39;;;;;;;2.40;1.70;;;24.80;99.90;;;;;;5037651;28;20207;-86
2022/08/30 03:53:10;;;;;;;3.22;1.40;;;24.70;99.90;;;;;;5054280;28;20563;-87
2022/08/30 03:55:43;;;;;;;1.80;1.40;;;24.70;99.90;;;;;;5054232;28;20199;-85
2022/08/30 03:58:17;;;;;;;4.25;1.63;;;24.70;99.90;;;;;;5055586;28;20212;-90
2022/08/30 04:00:49;;;;;;;2.85;1.17;;;24.60;99.90;;;;;;5063319;28;20279;-91
2022/08/30 04:03:24;;;;;;;2.17;1.25;;;24.60;99.90;;;;;;5047859;28;20197;-90
2022/08/30 04:05:56;;;;;;;2.42;1.30;;;24.50;99.90;;;;;;5063453;28;20204;-89
2022/08/30 04:08:28;;;;;;;2.13;1.40;;;24.50;99.90;;;;;;5055575;28;20596;-89
2022/08/30 04:11:01;;;;;;;2.08;1.25;;;24.50;99.90;;;;;;5053360;28;20562;-87
2022/08/30 04:13:35;;;;;;;3.88;1.00;;;24.50;99.90;;;;;;5054359;28;20201;-88
2022/08/30 04:16:07;;;;;;;4.35;1.63;;;24.40;99.90;;;;;;5048798;28;20668;-89
2022/08/30 04:18:38;;;;;;;1.90;1.30;;;24.50;99.90;;;;;;5053088;28;20295;-89
2022/08/30 04:21:10;;;;;;;2.28;1.33;;;24.40;99.90;;;;;;5054040;28;20197;-92
2022/08/30 04:23:42;;;;;;;1.30;1.20;;;24.30;99.90;;;;;;5057937;28;20199;-91
2022/08/30 04:26:16;;;;;;;1.85;1.38;;;24.40;99.90;;;;;;5048764;28;20196;-88
2022/08/30 04:28:50;;;;;;;2.72;1.30;;;24.40;99.90;;;;;;5054773;28;20216;-91
2022/08/30 04:31:22;;;;;;;2.28;1.45;;;24.30;99.90;;;;;;5060793;28;20176;-89
2022/08/30 04:33:54;;;;;;;1.67;1.20;;;24.30;99.90;;;;;;5076248;28;20191;-93
2022/08/30 04:36:26;;;;;;;4.85;1.35;;;24.30;99.90;;;;;;5065940;28;20209;-94
2022/08/30 04:38:57;;;;;;;3.58;1.20;;;24.30;99.90;;;;;;5062413;28;20280;-91
2022/08/30 04:41:28;;;;;;;1.30;1.10;;;24.20;99.90;;;;;;5062998;28;20196;-91
2022/08/30 04:44:04;;;;;;;2.13;1.40;;;24.10;99.90;;;;;;5061527;28;20233;-90
2022/08/30 04:46:35;;;;;;;3.28;1.30;;;24.10;99.90;;;;;;5067944;28;20204;-89
2022/08/30 04:49:07;;;;;;;1.35;1.25;;;24.10;99.90;;;;;;5067830;28;20227;-88
2022/08/30 04:51:39;;;;;;;1.23;1.00;;;24.10;99.90;;;;;;5049752;28;20193;-87
2022/08/30 04:54:10;;;;;;;2.95;1.45;;;24.10;99.90;;;;;;5049358;28;20201;-86
2022/08/30 04:56:42;;;;;;;3.42;1.60;;;24.10;99.90;;;;;;5064878;28;20195;-91
2022/08/30 04:59:16;;;;;;;2.78;1.17;;;24.10;99.90;;;;;;5054905;28;20217;-88
2022/08/30 05:01:48;;;;;;;2.88;1.20;;;24.10;99.90;;;;;;5054018;28;20223;-92
2022/08/30 05:04:21;;;;;;;3.22;1.30;;;24.10;99.90;;;;;;5049466;22;20688;-89
2022/08/30 05:06:53;;;;;;;2.58;1.10;;;24.10;99.90;;;;;;5038997;28;20198;-89
2022/08/30 05:09:25;;;;;;;1.23;1.10;;;24.20;99.90;;;;;;5031301;28;20205;-89
2022/08/30 05:15:26;;;;;;;1.50;1.20;;;24.20;99.90;;;;;;5048617;28;20231;-91
2022/08/30 05:17:58;;;;;;;1.70;1.30;;;24.20;99.90;;;;;;5044186;28;20217;-90
2022/08/30 05:20:31;;;;;;;4.03;1.45;;;24.30;99.90;;;;;;5034253;28;20197;-87
2022/08/30 05:23:02;;;;;;;1.55;1.10;;;24.30;99.90;;;;;;5038723;28;20201;-89
2022/08/30 05:25:38;;;;;;;2.22;1.13;;;24.20;99.90;;;;;;5054252;28;20299;-89
2022/08/30 05:28:23;;;;;;;1.33;1.15;;;24.20;99.90;;;;;;5037901;28;20287;-87
2022/08/30 05:31:05;;;;;;;1.95;1.33;;;24.10;99.90;;;;;;5043666;28;20288;-89
2022/08/30 05:33:37;;;;;;;1.83;1.30;;;24.10;99.90;;;;;;5045502;28;20267;-89
2022/08/30 05:36:11;;;;;;;1.90;1.30;;;24.10;99.90;;;;;;5015495;28;20293;-88
2022/08/30 05:38:44;;;;;;;2.58;1.35;;;24.00;99.90;;;;;;5027367;28;20228;-89
2022/08/30 05:41:17;;;;;;;1.70;1.30;;;23.90;99.90;;;;;;5025172;28;20221;-90
2022/08/30 05:43:50;;;;;;;1.85;1.10;;;23.90;99.90;;;;;;5037742;28;20193;-89
2022/08/30 05:46:32;;;;;;;1.98;1.33;;;23.90;99.90;;;;;;5031006;28;20193;-90
2022/08/30 05:49:06;;;;;;;2.15;1.35;;;23.90;99.90;;;;;;5042542;28;20201;-87
2022/08/30 05:51:38;;;;;;;3.47;1.17;;;23.90;99.90;;;;;;5048111;28;20198;-92
2022/08/30 05:54:17;;;;;;;1.80;1.27;;;24.00;99.90;;;;;;5038706;28;20644;-87
2022/08/30 05:56:51;;;;;;;1.67;1.10;;;24.00;99.90;;;;;;5030541;28;20216;-91
2022/08/30 05:59:25;;;;;;;2.00;1.10;;;24.10;99.90;;;;;;5027827;28;20204;-87
2022/08/30 06:02:02;;;;;;;1.42;1.20;;;24.10;99.90;;;;;;5036062;28;20217;-89
2022/08/30 06:04:35;;;;;;;2.15;1.13;;;24.10;99.90;;;;;;5016748;28;20229;-90
2022/08/30 06:07:08;;;;;;;2.25;1.48;;;24.10;99.90;;;;;;5018148;28;20249;-91
2022/08/30 06:09:38;;;;;;;2.45;1.38;;;24.10;99.90;;;;;;5019534;28;20201;-88
2022/08/30 06:12:10;;;;;;;2.10;1.10;;;24.10;99.90;;;;;;5024169;28;20200;-88
2022/08/30 06:14:46;;;;;;;2.17;1.30;;;24.10;99.90;;;;;;5031352;28;20667;-89
2022/08/30 06:17:20;;;;;;;2.00;1.40;;;24.10;99.90;;;;;;5042479;28;20215;-87
2022/08/30 06:19:51;;;;;;;3.72;1.50;;;24.20;99.90;;;;;;5031019;28;20280;-91
2022/08/30 06:22:26;;;;;;;2.75;1.25;;;24.20;99.90;;;;;;5039520;28;20229;-88
2022/08/30 06:24:57;;;;;;;2.45;1.60;;;24.20;99.90;;;;;;5044574;28;20192;-89
2022/08/30 06:27:30;;;;;;;3.55;1.50;;;24.20;99.90;;;;;;5038269;28;20203;-93
2022/08/30 06:30:03;;;;;;;2.25;1.30;;;24.20;99.90;;;;;;5042412;28;20255;-93
2022/08/30 06:32:40;;;;;;;3.30;1.58;;;24.20;99.90;;;;;;5038325;28;20296;-90
2022/08/30 06:35:13;;;;;;;1.55;1.40;;;24.10;99.90;;;;;;5043071;28;20622;-94
2022/08/30 06:37:45;;;;;;;1.85;1.48;;;24.10;99.90;;;;;;5033332;28;20297;-90
2022/08/30 06:40:18;;;;;;;1.90;1.27;;;24.00;99.90;;;;;;5047730;28;20247;-87
2022/08/30 06:42:53;;;;;;;2.05;1.40;;;23.90;99.90;;;;;;5044459;28;20236;-95
2022/08/30 06:45:25;;;;;;;1.63;1.13;;;23.90;99.90;;;;;;5045682;28;20196;-89
2022/08/30 06:48:10;;;;;;;2.13;1.20;;;23.80;99.90;;;;;;5056841;28;20201;-84
2022/08/30 06:50:43;;;;;;;2.95;1.27;;;23.80;99.90;;;;;;5044716;28;20189;-93
2022/08/30 06:53:18;;;;;;;2.35;1.30;;;23.70;99.90;;;;;;5039867;28;20201;-94
2022/08/30 06:55:58;;;;;;;1.25;1.10;;;23.50;99.90;;;;;;5029927;28;20193;-94
2022/08/30 06:58:33;;;;;;;1.80;1.40;;;23.50;99.90;;;;;;5042000;28;20236;-87
2022/08/30 07:01:05;;;;;;;2.25;1.20;;;23.40;99.90;;;;;;5037094;28;20200;-87
2022/08/30 07:03:41;;;;;;;2.03;1.10;;;23.20;99.90;;;;;;5034766;28;20237;-87
2022/08/30 07:06:12;;;;;;;1.63;1.25;;;23.20;99.90;;;;;;5029348;28;20193;-87
2022/08/30 07:08:43;;;;;;;3.90;1.50;;;23.10;99.90;;;;;;5030895;28;20201;-88
2022/08/30 07:11:16;;;;;;;1.45;1.33;;;23.10;99.90;;;;;;5029784;28;20216;-87
2022/08/30 07:13:48;;;;;;;2.17;1.17;;;23.00;99.90;;;;;;5034790;28;20676;-89
2022/08/30 07:16:20;;;;;;;2.65;1.45;;;22.90;99.90;;;;;;5035207;28;20350;-88
2022/08/30 07:18:53;;;;;;;1.83;1.38;;;22.80;99.90;;;;;;5040951;28;20221;-87
2022/08/30 07:21:28;;;;;;;2.58;1.40;;;22.70;99.90;;;;;;5033173;28;20575;-86
2022/08/30 07:23:59;;;;;;;1.88;1.40;;;22.70;99.90;;;;;;5028744;28;20227;-87
2022/08/30 07:26:34;;;;;;;2.25;1.20;;;22.60;99.90;;;;;;5025135;28;20197;-90
2022/08/30 07:29:07;;;;;;;1.65;1.30;;;22.60;99.90;;;;;;5034452;28;20648;-90
2022/08/30 07:31:39;;;;;;;2.97;1.48;;;22.50;99.90;;;;;;5035144;28;20255;-89
2022/08/30 07:34:13;;;;;;;3.20;1.38;;;22.40;99.90;;;;;;5032850;28;20203;-89
2022/08/30 07:36:44;;;;;;;1.85;1.20;;;22.30;99.90;;;;;;5019356;28;20197;-86
2022/08/30 07:39:14;;;;;;;1.55;1.08;;;22.20;99.90;;;;;;5016857;28;20226;-87
2022/08/30 07:41:47;;;;;;;2.03;1.20;;;22.10;99.90;;;;;;5025304;28;20209;-89
2022/08/30 07:44:18;;;;;;;1.70;1.10;;;22.10;99.90;;;;;;5034790;28;20237;-90
2022/08/30 07:46:50;;;;;;;1.13;1.02;;;22.00;99.90;;;;;;5032210;28;20202;-88
2022/08/30 07:49:25;;;;;;;1.20;1.00;;;22.00;99.90;;;;;;5013388;28;20201;-86
2022/08/30 07:51:57;;;;;;;3.20;1.30;;;21.90;99.90;;;;;;5028896;28;20651;-85
2022/08/30 07:54:29;;;;;;;2.78;1.40;;;21.90;99.90;;;;;;5016580;28;20197;-86
2022/08/30 07:57:02;;;;;;;4.47;2.45;;;21.90;99.90;;;;;;5032120;28;20208;-86
2022/08/30 07:59:32;;;;;;;2.63;1.58;;;21.80;99.90;;;;;;5013357;28;20229;-85
2022/08/30 08:02:03;;;;;;;1.60;1.30;;;21.80;99.90;;;;;;5016039;28;20205;-86
2022/08/30 08:04:37;;;;;;;1.75;1.40;;;21.70;99.90;;;;;;5031789;28;20232;-87
2022/08/30 08:07:10;;;;;;;1.92;1.40;;;21.70;99.90;;;;;;5033524;28;20197;-89
2022/08/30 08:09:43;;;;;;;4.22;1.20;;;21.50;99.90;;;;;;5039817;28;20201;-90
2022/08/30 08:12:15;;;;;;;4.85;1.40;;;21.50;99.90;;;;;;5034523;28;20193;-87
2022/08/30 08:14:47;;;;;;;3.10;0.68;;;21.50;99.90;;;;;;5034612;28;20198;-89
2022/08/30 08:17:19;;;;;;;4.68;0.90;;;21.60;98.30;;;;;;5030114;28;20194;-90
2022/08/30 08:19:55;;;;;;;3.15;1.10;;;21.50;96.00;;;;;;5014807;28;20213;-90
2022/08/30 08:22:26;;;;;;;2.28;0.80;;;21.50;83.90;;;;;;5045280;28;20259;-90
2022/08/30 08:24:59;;;;;;;1.20;0.60;;;21.60;70.70;;;;;;5033794;28;20698;-91
2022/08/30 08:27:31;;;;;;;1.20;0.77;;;21.60;71.70;;;;;;5037707;28;20213;-90
2022/08/30 08:30:03;;;;;;;1.60;0.80;;;21.50;73.50;;;;;;5039664;28;20371;-86
2022/08/30 08:32:34;;;;;;;1.70;0.60;;;21.50;79.80;;;;;;5029314;28;20258;-86
2022/08/30 08:35:10;;;;;;;1.42;0.60;;;21.40;82.50;;;;;;5035218;28;20280;-86
2022/08/30 08:37:44;;;;;;;2.88;1.20;;;21.40;80.70;;;;;;5024184;28;20223;-84
2022/08/30 08:40:19;;;;;;;2.95;1.52;;;21.30;83.40;;;;;;5025108;28;20193;-84
2022/08/30 08:43:02;;;;;;;2.70;1.17;;;21.30;81.80;;;;;;5026307;28;20734;-85
2022/08/30 08:45:47;;;;;;;4.75;2.00;;;21.20;77.10;;;;;;5024062;28;20196;-83
2022/08/30 08:48:30;;;;;;;7.03;3.20;;;21.10;80.40;;;;;;5029388;28;20256;-84
2022/08/30 08:53:59;;;;;;;3.50;1.35;;;21.00;80.00;;;;;;5013116;28;20180;-85
2022/08/30 08:56:30;;;;;;;7.35;2.38;;;20.90;77.40;;;;;;5014498;28;20209;-85
2022/08/30 08:59:01;;;;;;;9.35;3.40;;;20.90;77.70;;;;;;5033490;28;20225;-83
2022/08/30 09:01:37;;;;;;;3.63;1.90;;;20.90;74.40;;;;;;5034240;28;20212;-84
2022/08/30 09:04:14;;;;;;;4.85;1.70;;;20.90;73.40;;;;;;5036638;28;20653;-84
2022/08/30 09:06:55;;;;;;;2.65;1.50;;;20.80;74.30;;;;;;5044996;28;20265;-84
2022/08/30 09:09:29;;;;;;;2.85;1.30;;;20.80;73.50;;;;;;5032737;28;20218;-85
2022/08/30 09:11:59;;;;;;;2.67;1.20;;;20.80;73.50;;;;;;5028443;28;20575;-84
2022/08/30 09:14:34;;;;;;;2.90;1.10;;;20.80;74.40;;;;;;5031510;28;20205;-84
2022/08/30 09:17:06;;;;;;;3.25;1.70;;;20.70;73.70;;;;;;5031221;28;20219;-84
2022/08/30 09:19:44;;;;;;;2.22;1.10;;;20.70;75.30;;;;;;5025308;28;20243;-86
2022/08/30 09:22:26;;;;;;;2.20;1.17;;;20.60;76.80;;;;;;5030650;28;20201;-84
2022/08/30 09:25:04;;;;;;;3.03;1.20;;;20.50;78.80;;;;;;5031088;28;20203;-85
2022/08/30 09:27:37;;;;;;;2.58;1.45;;;20.50;81.70;;;;;;5033729;28;20224;-84
2022/08/30 09:30:11;;;;;;;2.90;1.83;;;20.40;83.30;;;;;;5030860;28;20201;-83
2022/08/30 09:32:43;;;;;;;2.22;1.40;;;20.40;84.10;;;;;;5031193;28;20235;-85
2022/08/30 09:35:22;;;;;;;2.30;1.30;;;20.30;83.30;;;;;;5028785;28;20571;-87
2022/08/30 09:37:59;;;;;;;3.75;1.25;;;20.30;84.60;;;;;;5031198;28;20276;-86
2022/08/30 09:40:35;;;;;;;1.70;1.15;;;20.20;83.90;;;;;;5031947;28;20192;-87
2022/08/30 09:43:14;;;;;;;2.13;1.30;;;20.10;84.20;;;;;;5026065;28;20284;-86
2022/08/30 09:45:47;;;;;;;3.42;1.42;;;20.10;84.90;;;;;;5018405;28;21348;-85
2022/08/30 09:48:31;;;;;;;2.95;1.20;;;20.00;84.70;;;;;;5035522;28;20648;-86
2022/08/30 09:51:21;;;;;;;2.25;1.15;;;20.00;86.10;;;;;;5035987;28;20652;-87
2022/08/30 09:54:06;;;;;;;2.63;1.27;;;20.00;84.50;;;;;;5035425;28;20196;-88
2022/08/30 09:56:44;;;;;;;2.60;1.30;;;19.90;85.70;;;;;;5021196;28;20208;-86
2022/08/30 09:59:28;;;;;;;2.78;1.40;;;19.90;85.60;;;;;;5034938;28;20308;-89
2022/08/30 10:02:07;;;;;;;4.63;1.25;;;19.90;86.30;;;;;;5016626;28;20217;-91
2022/08/30 10:04:47;;;;;;;2.10;1.15;;;19.90;87.10;;;;;;5016587;28;20225;-90
2022/08/30 10:07:27;;;;;;;2.15;0.70;;;19.90;88.00;;;;;;5029347;28;20592;-89
2022/08/30 10:10:09;;;;;;;1.45;1.00;;;19.60;88.90;;;;;;5015687;28;20240;-87
2022/08/30 10:12:50;;;;;;;2.60;1.38;;;19.50;90.00;;;;;;5023396;28;20678;-87
2022/08/30 10:15:27;;;;;;;2.35;0.77;;;19.50;90.70;;;;;;5034531;28;20660;-87
2022/08/30 10:18:04;;;;;;;0.93;0.70;;;19.40;91.20;;;;;;5021125;28;20224;-87
2022/08/30 10:21:02;;;;;;;2.38;0.60;;;19.40;91.60;;;;;;5040651;28;20197;-87
2022/08/30 10:23:45;;;;;;;2.47;0.90;;;19.30;92.40;;;;;;5048280;28;20198;-86
2022/08/30 10:26:39;;;;;;;2.58;0.93;;;19.30;92.60;;;;;;5047958;28;20218;-90
2022/08/30 10:29:17;;;;;;;3.13;0.60;;;19.20;93.70;;;;;;5030847;28;20212;-87
2022/08/30 10:31:51;;;;;;;1.20;0.80;;;19.20;94.40;;;;;;5019669;28;20208;-85
2022/08/30 10:34:29;;;;;;;1.92;1.10;;;19.30;95.00;;;;;;5039676;28;20208;-88
2022/08/30 10:37:06;;;;;;;2.75;1.02;;;19.20;95.30;;;;;;5018060;28;20198;-87
2022/08/30 10:39:44;;;;;;;0.85;0.60;;;19.10;96.20;;;;;;5036787;28;20810;-87
2022/08/30 10:42:34;;;;;;;2.10;0.90;;;19.10;97.10;;;;;;5038280;28;20840;-88
2022/08/30 10:45:09;;;;;;;3.15;0.60;;;19.00;98.10;;;;;;5036525;28;20233;-85
2022/08/30 10:47:46;;;;;;;1.80;0.85;;;19.00;98.60;;;;;;5020390;28;20695;-86
2022/08/30 10:50:22;;;;;;;2.22;0.70;;;19.00;99.30;;;;;;5017261;28;20182;-86
2022/08/30 10:52:59;;;;;;;3.67;0.70;;;18.90;99.90;;;;;;5033733;28;20200;-86
2022/08/30 10:55:34;;;;;;;1.27;0.80;;;18.80;99.90;;;;;;5035943;28;20181;-86
2022/08/30 10:58:09;;;;;;;3.95;0.80;;;18.90;99.90;;;;;;5037318;28;20783;-86
2022/08/30 11:00:56;;;;;;;2.40;0.70;;;18.90;99.90;;;;;;5037280;28;20235;-88
2022/08/30 11:03:59;;;;;;;1.38;0.73;;;18.80;99.90;;;;;;5030696;28;20241;-87
2022/08/30 11:06:38;;;;;;;3.22;0.75;;;18.80;99.90;;;;;;5017770;28;20297;-87
2022/08/30 11:09:33;;;;;;;2.17;0.73;;;18.80;99.90;;;;;;5036699;28;20205;-86
2022/08/30 11:12:37;;;;;;;0.98;0.50;;;18.80;99.90;;;;;;5037112;28;20222;-87
2022/08/30 11:15:22;;;;;;;1.60;0.60;;;18.70;99.90;;;;;;5030713;28;20245;-88
2022/08/30 11:18:00;;;;;;;0.80;0.50;;;18.60;99.90;;;;;;5041908;28;20186;-88
2022/08/30 11:20:42;;;;;;;4.82;0.70;;;18.50;99.90;;;;;;5030880;28;20723;-87
2022/08/30 11:23:31;;;;;;;2.65;0.60;;;18.50;99.90;;;;;;5035047;28;20268;-88
2022/08/30 11:26:04;;;;;;;3.05;0.82;;;18.40;99.90;;;;;;5036416;28;20189;-86
2022/08/30 11:29:05;;;;;;;1.95;0.80;;;18.40;99.90;;;;;;5041537;28;20718;-85
2022/08/30 11:31:48;;;;;;;1.38;0.73;;;18.30;99.90;;;;;;5038887;28;20453;-86
2022/08/30 11:35:05;;;;;;;2.63;0.95;;;18.30;99.90;;;;;;5026794;28;20197;-85
2022/08/30 11:37:48;;;;;;;2.92;0.80;;;18.20;99.90;;;;;;5002243;28;20228;-87
2022/08/30 11:40:50;;;;;;;1.67;0.80;;;18.20;99.90;;;;;;5032036;28;20214;-86
2022/08/30 11:43:54;;;;;;;1.95;0.82;;;18.20;99.90;;;;;;5016710;28;20683;-85
2022/08/30 11:46:43;;;;;;;1.23;0.80;;;18.10;99.90;;;;;;5013205;28;20229;-85
2022/08/30 11:49:54;;;;;;;1.70;0.80;;;18.10;99.90;;;;;;5037238;28;20224;-85
2022/08/30 11:52:50;;;;;;;4.05;1.00;;;18.00;99.90;;;;;;4974902;28;20199;-86
2022/08/30 11:55:45;;;;;;;2.72;1.05;;;18.00;99.90;;;;;;5026789;28;20185;-90
2022/08/30 11:58:30;;;;;;;1.25;0.70;;;17.90;99.90;;;;;;5027755;28;20648;-90
2022/08/30 12:01:38;;;;;;;2.70;0.70;;;17.90;99.90;;;;;;5018552;28;20217;-89
2022/08/30 12:04:27;;;;;;;3.47;0.88;;;17.90;99.90;;;;;;5002041;28;20234;-90
2022/08/30 12:07:03;;;;;;;2.28;0.80;;;17.80;99.90;;;;;;5010868;28;20220;-88
2022/08/30 12:10:09;;;;;;;0.80;0.60;;;17.80;99.90;;;;;;5034715;28;20208;-87
2022/08/30 12:12:58;;;;;;;1.35;0.80;;;17.80;99.90;;;;;;5047491;28;20185;-90
2022/08/30 12:15:59;;;;;;;1.00;0.80;;;17.80;99.90;;;;;;5040701;28;20284;-90
2022/08/30 12:18:44;;;;;;;1.85;0.88;;;17.70;99.90;;;;;;5031894;28;20202;-92
2022/08/30 12:21:38;;;;;;;1.52;0.90;;;17.70;99.90;;;;;;5033979;28;20189;-95
2022/08/30 12:24:20;;;;;;;1.13;0.70;;;17.70;99.90;;;;;;5033099;28;20660;-90
2022/08/30 12:26:53;;;;;;;1.85;0.70;;;17.70;99.90;;;;;;5033975;28;20201;-91
2022/08/30 12:29:26;;;;;;;3.42;0.82;;;17.70;99.90;;;;;;5044590;28;20223;-89
2022/08/30 12:31:59;;;;;;;1.98;0.90;;;17.60;99.90;;;;;;5057740;28;20213;-91
2022/08/30 12:34:32;;;;;;;2.47;0.85;;;17.60;99.90;;;;;;5017982;28;20189;-89
2022/08/30 12:37:07;;;;;;;1.67;0.60;;;17.60;99.90;;;;;;5033666;28;20199;-90
2022/08/30 12:39:40;;;;;;;1.30;0.70;;;17.50;99.90;;;;;;5029261;28;20225;-93
2022/08/30 12:42:19;;;;;;;2.50;0.65;;;17.50;99.90;;;;;;5033496;28;20198;-92
2022/08/30 12:44:52;;;;;;;1.63;0.68;;;17.60;99.90;;;;;;5031614;28;20205;-92
2022/08/30 12:47:28;;;;;;;1.73;0.90;;;17.50;99.90;;;;;;5032484;28;20202;-92
2022/08/30 12:50:01;;;;;;;3.85;1.10;;;17.50;99.90;;;;;;5039477;28;20200;-93
2022/08/30 12:52:39;;;;;;;1.85;0.75;;;17.50;99.90;;;;;;5032817;28;20201;-92
2022/08/30 12:55:19;;;;;;;0.80;0.65;;;17.40;99.90;;;;;;5024337;28;20201;-92
2022/08/30 12:58:02;;;;;;;2.63;0.88;;;17.50;99.90;;;;;;5013872;28;20196;-92
2022/08/30 13:00:35;;;;;;;2.22;1.05;;;17.30;99.90;;;;;;5027004;28;20673;-92
2022/08/30 13:03:09;;;;;;;3.25;0.70;;;17.40;99.90;;;;;;5046052;28;20223;-92
2022/08/30 13:05:51;;;;;;;1.98;0.85;;;17.40;99.90;;;;;;5024364;28;20212;-93
2022/08/30 13:08:35;;;;;;;1.52;0.65;;;17.30;99.90;;;;;;5045706;28;20200;-93
2022/08/30 13:11:10;;;;;;;1.58;0.55;;;17.40;99.90;;;;;;5040554;28;20431;-93
2022/08/30 13:13:44;;;;;;;0.73;0.45;;;17.20;99.90;;;;;;5040881;28;20212;-94
2022/08/30 13:16:28;;;;;;;0.40;0.40;;;17.20;99.90;;;;;;5052434;28;20256;-93
2022/08/30 13:19:14;;;;;;;1.38;0.50;;;17.20;99.90;;;;;;5043649;28;20260;-90
2022/08/30 13:21:53;;;;;;;2.03;0.50;;;17.20;99.90;;;;;;5033408;28;20204;-91
2022/08/30 13:24:28;;;;;;;1.25;0.45;;;17.10;99.90;;;;;;5029759;28;20204;-94
2022/08/30 13:27:05;;;;;;;1.52;0.60;;;17.20;99.90;;;;;;5034405;28;20223;-94
2022/08/30 13:29:37;;;;;;;0.70;0.45;;;17.10;99.90;;;;;;5034228;28;20221;-93
2022/08/30 13:32:08;;;;;;;1.50;0.50;;;17.00;99.90;;;;;;5040070;28;20220;-87
2022/08/30 13:34:43;;;;;;;3.55;0.45;;;17.00;99.90;;;;;;5049249;28;20205;-93
2022/08/30 13:37:18;;;;;;;1.25;0.50;;;16.90;99.90;;;;;;5026328;28;20201;-92
2022/08/30 13:39:53;;;;;;;0.57;0.50;;;16.80;99.90;;;;;;5035485;28;20231;-91
2022/08/30 13:42:25;;;;;;;0.95;0.47;;;16.80;99.90;;;;;;5036376;28;20223;-92